Time;durP1;ratioP1;P1;durP2;ratioP2;P2;SDS_P1;SDS_P2;PMS_P1;PMS_P2;Temp;Humidity;BMP_temperature;BMP_pressure;BME280_temperature;BME280_humidity;BME280_pressure;Samples;Min_cycle;Max_cycle;Signal;HPM_P1;HPM_P2
2022/09/13 00:00:56;;;;;;;22.27;19.98;;;17.70;99.90;;;;;;5042635;28;20056;-47
2022/09/13 00:03:27;;;;;;;23.65;21.15;;;17.60;99.90;;;;;;5042157;28;20150;-50
2022/09/13 00:05:53;;;;;;;24.02;21.52;;;17.70;99.90;;;;;;5043256;28;20057;-48
2022/09/13 00:08:19;;;;;;;24.40;21.83;;;17.60;99.90;;;;;;5043565;28;20040;-48
2022/09/13 00:10:45;;;;;;;25.25;22.80;;;17.70;99.90;;;;;;5043811;28;20064;-55
2022/09/13 00:13:12;;;;;;;26.15;23.10;;;17.60;99.90;;;;;;5043564;28;20049;-46
2022/09/13 00:15:49;;;;;;;28.30;23.63;;;17.60;99.90;;;;;;5042742;28;20044;-50
2022/09/13 00:18:16;;;;;;;27.92;24.13;;;17.60;99.90;;;;;;5024846;28;20519;-49
2022/09/13 00:20:42;;;;;;;28.58;25.40;;;17.50;99.90;;;;;;5043459;28;20053;-48
2022/09/13 00:23:09;;;;;;;26.40;23.63;;;17.40;99.90;;;;;;5042403;28;20570;-49
2022/09/13 00:25:36;;;;;;;29.33;26.23;;;17.50;99.90;;;;;;5042626;28;20102;-49
2022/09/13 00:28:03;;;;;;;30.20;26.98;;;17.50;99.90;;;;;;5042746;28;20049;-48
2022/09/13 00:30:29;;;;;;;32.40;26.73;;;17.40;99.90;;;;;;5043619;28;20504;-48
2022/09/13 00:32:55;;;;;;;29.65;26.58;;;17.40;99.90;;;;;;5042867;28;20051;-48
2022/09/13 00:35:21;;;;;;;30.15;26.98;;;17.50;99.90;;;;;;5041878;28;20041;-47
2022/09/13 00:37:47;;;;;;;31.70;28.25;;;17.40;99.90;;;;;;5041403;28;20049;-48
2022/09/13 00:40:13;;;;;;;31.67;27.95;;;17.50;99.90;;;;;;5042163;28;20052;-48
2022/09/13 00:42:39;;;;;;;32.05;27.63;;;17.40;99.90;;;;;;5041109;28;20320;-47
2022/09/13 00:45:11;;;;;;;32.17;28.50;;;17.30;99.90;;;;;;5022800;28;20052;-48
2022/09/13 00:48:02;;;;;;;32.70;29.20;;;17.40;99.90;;;;;;5040254;28;20128;-48
2022/09/13 00:50:33;;;;;;;30.48;27.25;;;17.30;99.90;;;;;;4959344;28;20055;-46
2022/09/13 00:53:18;;;;;;;31.92;27.77;;;17.40;99.90;;;;;;4950547;28;20097;-46
2022/09/13 00:55:53;;;;;;;29.27;26.42;;;17.40;99.90;;;;;;4941866;28;20128;-46
2022/09/13 00:58:33;;;;;;;29.17;26.20;;;17.40;99.90;;;;;;4962497;28;20360;-47
2022/09/13 01:01:01;;;;;;;29.00;25.80;;;17.40;99.90;;;;;;4959368;28;20486;-46
2022/09/13 01:03:30;;;;;;;30.83;27.45;;;17.40;99.90;;;;;;4959859;28;20458;-47
2022/09/13 01:06:17;;;;;;;29.30;26.05;;;17.50;99.90;;;;;;4959353;28;20054;-48
2022/09/13 01:08:47;;;;;;;30.10;26.52;;;17.50;99.90;;;;;;4958060;28;20055;-47
2022/09/13 01:11:26;;;;;;;27.75;24.85;;;17.50;99.90;;;;;;4959290;28;20047;-47
2022/09/13 01:13:52;;;;;;;31.05;27.75;;;17.40;99.90;;;;;;4960773;28;20498;-47
2022/09/13 01:16:18;;;;;;;33.65;27.73;;;17.40;99.90;;;;;;4959003;28;20062;-46
2022/09/13 01:18:44;;;;;;;31.58;26.67;;;17.60;99.90;;;;;;4958521;28;20465;-47
2022/09/13 01:21:47;;;;;;;31.98;28.75;;;17.50;99.90;;;;;;4959198;28;20086;-47
2022/09/13 01:24:15;;;;;;;31.23;27.95;;;17.50;99.90;;;;;;4955803;28;20055;-46
2022/09/13 01:27:03;;;;;;;31.50;28.08;;;17.50;99.90;;;;;;4971991;28;20111;-48
2022/09/13 01:29:40;;;;;;;30.35;27.15;;;17.50;99.90;;;;;;5022429;28;20056;-52
2022/09/13 01:32:20;;;;;;;32.47;26.77;;;17.50;99.90;;;;;;5021705;28;20085;-50
2022/09/13 01:34:57;;;;;;;27.65;24.70;;;17.60;99.90;;;;;;5024972;28;20049;-47
2022/09/13 01:37:40;;;;;;;29.60;26.42;;;17.60;99.90;;;;;;5022832;28;20056;-47
2022/09/13 01:40:26;;;;;;;30.08;27.17;;;17.50;99.90;;;;;;5024264;28;20496;-46
2022/09/13 01:43:01;;;;;;;28.17;24.55;;;17.50;99.90;;;;;;5025161;28;20514;-46
2022/09/13 01:45:43;;;;;;;26.17;23.50;;;17.50;99.90;;;;;;5024866;28;20064;-46
2022/09/13 01:48:19;;;;;;;26.23;23.35;;;17.50;99.90;;;;;;5022418;28;20489;-47
2022/09/13 01:51:25;;;;;;;23.67;21.13;;;17.40;99.90;;;;;;5024496;28;20061;-47
2022/09/13 01:53:54;;;;;;;28.27;22.70;;;17.50;99.90;;;;;;5025168;28;20076;-48
2022/09/13 01:56:36;;;;;;;29.80;23.45;;;17.50;99.90;;;;;;5023851;28;20049;-46
2022/09/13 01:59:41;;;;;;;23.02;20.67;;;17.50;99.90;;;;;;5023018;28;20049;-46
2022/09/13 02:02:26;;;;;;;24.35;19.30;;;17.50;99.90;;;;;;5000949;28;20069;-46
2022/09/13 02:04:59;;;;;;;21.23;19.10;;;17.50;99.90;;;;;;5001640;28;20631;-46
2022/09/13 02:07:34;;;;;;;19.92;17.92;;;17.50;99.90;;;;;;4984578;28;20602;-47
2022/09/13 02:10:08;;;;;;;23.67;18.58;;;17.50;99.90;;;;;;4998428;28;20382;-46
2022/09/13 02:12:36;;;;;;;20.88;15.85;;;17.50;99.90;;;;;;5002069;28;20155;-47
2022/09/13 02:15:23;;;;;;;19.67;16.50;;;17.50;99.90;;;;;;5000863;28;20053;-47
2022/09/13 02:18:01;;;;;;;18.25;15.20;;;17.50;99.90;;;;;;5000485;28;20517;-48
2022/09/13 02:20:32;;;;;;;18.05;16.25;;;17.60;99.90;;;;;;4999977;28;20627;-47
2022/09/13 02:23:04;;;;;;;16.52;13.98;;;17.60;99.90;;;;;;5000427;28;20417;-47
2022/09/13 02:25:34;;;;;;;18.40;13.90;;;17.50;99.90;;;;;;5000842;28;20606;-47
2022/09/13 02:28:04;;;;;;;17.10;15.30;;;17.60;99.90;;;;;;5000668;28;20108;-49
2022/09/13 02:30:33;;;;;;;19.23;14.00;;;17.50;99.90;;;;;;4999908;28;20057;-47
2022/09/13 02:33:10;;;;;;;15.35;13.77;;;17.60;99.90;;;;;;5000381;28;20081;-47
2022/09/13 02:35:44;;;;;;;15.70;14.02;;;17.50;99.90;;;;;;5000607;28;20136;-47
2022/09/13 02:38:23;;;;;;;17.70;15.02;;;17.50;99.90;;;;;;5016291;28;20057;-46
2022/09/13 02:40:59;;;;;;;15.23;13.45;;;17.60;99.90;;;;;;5015358;28;20168;-47
2022/09/13 02:43:32;;;;;;;15.63;13.13;;;17.60;99.90;;;;;;5015348;28;20111;-47
2022/09/13 02:46:19;;;;;;;;;;;17.70;99.90;;;;;;5026690;28;20058;-46
2022/09/13 02:49:09;;;;;;;14.40;12.60;;;17.60;99.90;;;;;;5024606;28;19964;-53
2022/09/13 02:51:38;;;;;;;14.15;11.52;;;17.60;99.90;;;;;;5018322;28;20057;-47
2022/09/13 02:54:22;;;;;;;13.52;11.65;;;17.60;99.90;;;;;;5023548;28;20508;-48
2022/09/13 02:57:06;;;;;;;11.23;10.10;;;17.60;99.90;;;;;;5023585;28;20045;-47
2022/09/13 02:59:33;;;;;;;14.18;11.40;;;17.80;99.90;;;;;;5014248;28;20128;-48
2022/09/13 03:02:08;;;;;;;11.88;10.55;;;17.70;99.90;;;;;;5022653;28;20490;-47
2022/09/13 03:04:34;;;;;;;12.25;9.90;;;17.70;99.90;;;;;;5023321;28;20041;-46
2022/09/13 03:07:03;;;;;;;10.25;9.18;;;17.80;99.90;;;;;;5021361;28;20140;-47
2022/09/13 03:09:30;;;;;;;9.95;8.95;;;17.80;99.90;;;;;;5021923;28;20583;-48
2022/09/13 03:12:21;;;;;;;10.23;8.95;;;17.80;99.90;;;;;;5021738;28;20132;-47
2022/09/13 03:15:11;;;;;;;12.82;9.60;;;17.80;99.90;;;;;;5022658;28;20057;-46
2022/09/13 03:17:45;;;;;;;10.50;8.68;;;17.90;99.90;;;;;;5015143;28;20393;-48
2022/09/13 03:20:22;;;;;;;12.27;8.95;;;17.80;99.90;;;;;;5019407;28;20549;-48
2022/09/13 03:23:09;;;;;;;13.20;9.77;;;17.80;99.90;;;;;;5040158;28;20060;-47
2022/09/13 03:25:49;;;;;;;11.75;8.82;;;17.80;99.90;;;;;;5042609;28;20045;-49
2022/09/13 03:28:24;;;;;;;15.35;10.48;;;17.80;99.90;;;;;;5006025;28;20053;-47
2022/09/13 03:31:05;;;;;;;9.52;7.75;;;17.90;99.90;;;;;;5036801;28;20114;-46
2022/09/13 03:33:42;;;;;;;7.03;5.88;;;17.90;99.90;;;;;;5041731;28;20610;-47
2022/09/13 03:36:32;;;;;;;5.90;4.72;;;17.90;99.90;;;;;;5041388;28;20508;-49
2022/09/13 03:39:16;;;;;;;5.90;3.80;;;17.70;99.90;;;;;;5042050;28;20056;-47
2022/09/13 03:41:49;;;;;;;4.13;3.50;;;17.80;99.90;;;;;;5041699;28;20053;-47
2022/09/13 03:44:19;;;;;;;3.78;3.30;;;17.70;99.90;;;;;;5007515;28;20096;-47
2022/09/13 03:46:48;;;;;;;3.90;3.50;;;17.70;99.90;;;;;;5023553;28;20061;-49
2022/09/13 03:49:17;;;;;;;3.47;3.17;;;17.70;99.90;;;;;;5042687;28;20048;-48
2022/09/13 03:51:46;;;;;;;4.85;3.72;;;17.60;99.90;;;;;;5042216;28;20048;-47
2022/09/13 03:54:31;;;;;;;6.10;3.30;;;17.50;99.90;;;;;;5039521;28;20496;-47
2022/09/13 03:57:13;;;;;;;4.90;3.10;;;17.50;99.90;;;;;;5041070;28;20053;-47
2022/09/13 03:59:52;;;;;;;5.57;3.38;;;17.50;99.90;;;;;;5042171;28;20153;-46
2022/09/13 04:02:19;;;;;;;5.22;2.83;;;17.50;99.90;;;;;;5040538;28;20041;-48
2022/09/13 04:04:47;;;;;;;3.10;2.35;;;17.60;99.90;;;;;;5045502;28;20107;-46
2022/09/13 04:07:16;;;;;;;3.85;2.70;;;17.50;99.90;;;;;;5042357;28;20060;-48
2022/09/13 04:09:42;;;;;;;6.03;2.28;;;17.50;99.90;;;;;;5043199;28;20471;-46
2022/09/13 04:12:09;;;;;;;5.00;2.58;;;17.40;99.90;;;;;;5041694;28;20049;-47
2022/09/13 04:14:34;;;;;;;5.75;2.50;;;17.40;99.90;;;;;;5041317;28;20523;-48
2022/09/13 04:17:00;;;;;;;5.20;2.78;;;17.50;99.90;;;;;;5040515;28;20052;-47
2022/09/13 04:19:30;;;;;;;6.00;2.95;;;17.40;99.90;;;;;;5040765;28;20052;-48
2022/09/13 04:21:56;;;;;;;5.60;3.38;;;17.30;99.90;;;;;;5040461;28;20053;-47
2022/09/13 04:24:26;;;;;;;4.88;3.30;;;17.40;99.90;;;;;;5041330;28;20480;-47
2022/09/13 04:26:53;;;;;;;7.43;3.10;;;17.40;99.90;;;;;;5040116;28;20516;-47
2022/09/13 04:29:20;;;;;;;6.13;3.00;;;17.40;99.90;;;;;;5041720;28;20549;-49
2022/09/13 04:31:47;;;;;;;6.63;3.05;;;17.30;99.90;;;;;;5041410;28;20500;-49
2022/09/13 04:34:13;;;;;;;7.57;2.45;;;17.30;99.90;;;;;;5041433;28;20053;-48
2022/09/13 04:36:39;;;;;;;4.97;2.63;;;17.30;99.90;;;;;;5040320;28;20550;-48
2022/09/13 04:39:05;;;;;;;8.43;2.50;;;17.30;99.90;;;;;;5039987;28;20555;-47
2022/09/13 04:41:33;;;;;;;9.30;2.25;;;17.30;99.90;;;;;;5021702;28;20095;-46
2022/09/13 04:44:00;;;;;;;8.18;2.15;;;17.30;99.90;;;;;;5041213;28;20618;-48
2022/09/13 04:46:27;;;;;;;5.47;2.15;;;17.30;99.90;;;;;;5041252;28;20183;-47
2022/09/13 04:48:53;;;;;;;10.20;2.47;;;17.30;99.90;;;;;;5041426;28;20412;-47
2022/09/13 04:51:20;;;;;;;6.55;2.00;;;17.30;99.90;;;;;;5041796;28;20044;-49
2022/09/13 04:53:52;;;;;;;5.68;2.17;;;17.30;99.90;;;;;;5041340;28;20045;-52
2022/09/13 04:56:18;;;;;;;4.68;2.17;;;17.20;99.90;;;;;;5023232;28;20053;-47
2022/09/13 04:58:44;;;;;;;7.95;2.35;;;17.30;99.90;;;;;;5040246;28;20382;-48
2022/09/13 05:01:11;;;;;;;4.40;2.17;;;17.30;99.90;;;;;;5040647;28;20531;-47
2022/09/13 05:03:37;;;;;;;5.88;2.60;;;17.30;99.90;;;;;;5041231;28;20060;-48
2022/09/13 05:06:11;;;;;;;4.22;2.70;;;17.20;99.90;;;;;;5041618;28;20510;-47
2022/09/13 05:08:37;;;;;;;4.28;2.65;;;17.30;99.90;;;;;;5043547;28;20076;-47
2022/09/13 05:11:04;;;;;;;6.13;2.92;;;17.20;99.90;;;;;;5045696;28;20399;-47
2022/09/13 05:13:30;;;;;;;7.47;2.83;;;17.30;99.90;;;;;;5046444;28;20049;-47
2022/09/13 05:16:03;;;;;;;7.93;3.38;;;17.30;99.90;;;;;;5045700;28;20440;-46
2022/09/13 05:18:30;;;;;;;8.23;3.80;;;17.30;99.90;;;;;;5044814;28;20037;-46
2022/09/13 05:20:57;;;;;;;7.63;3.60;;;17.20;99.90;;;;;;5044265;28;20427;-47
2022/09/13 05:23:24;;;;;;;6.35;3.17;;;17.20;99.90;;;;;;5049011;28;20057;-48
2022/09/13 05:25:57;;;;;;;9.10;3.92;;;17.10;99.90;;;;;;5045391;28;20056;-49
2022/09/13 05:28:25;;;;;;;7.22;3.70;;;17.20;99.90;;;;;;5044643;28;20171;-48
2022/09/13 05:30:59;;;;;;;6.85;3.22;;;17.20;99.90;;;;;;5043265;28;20503;-47
2022/09/13 05:33:32;;;;;;;9.02;3.92;;;17.10;99.90;;;;;;5046037;28;20053;-46
2022/09/13 05:35:58;;;;;;;7.05;3.70;;;17.20;99.90;;;;;;5044895;28;20048;-49
2022/09/13 05:38:23;;;;;;;9.60;4.07;;;17.20;99.90;;;;;;5044711;28;20051;-47
2022/09/13 05:41:00;;;;;;;6.82;3.55;;;17.10;99.90;;;;;;5043333;28;20052;-48
2022/09/13 05:43:28;;;;;;;8.07;3.60;;;17.10;99.90;;;;;;5044599;28;20045;-46
2022/09/13 05:46:01;;;;;;;6.05;3.70;;;17.10;99.90;;;;;;5026058;28;20052;-49
2022/09/13 05:48:28;;;;;;;8.73;3.83;;;17.10;99.90;;;;;;5044921;28;20157;-47
2022/09/13 05:50:54;;;;;;;6.47;3.60;;;17.20;99.90;;;;;;5043801;28;20049;-46
2022/09/13 05:53:19;;;;;;;10.05;3.95;;;17.20;99.90;;;;;;5045011;28;20052;-47
2022/09/13 05:55:47;;;;;;;7.25;3.50;;;17.20;99.90;;;;;;5044348;28;20103;-47
2022/09/13 05:58:12;;;;;;;6.60;3.50;;;17.30;99.90;;;;;;5044362;28;20136;-47
2022/09/13 06:00:38;;;;;;;7.75;3.20;;;17.20;99.90;;;;;;5042986;28;20533;-46
2022/09/13 06:03:03;;;;;;;5.45;3.42;;;17.20;99.90;;;;;;5042360;28;20482;-46
2022/09/13 06:05:29;;;;;;;8.23;3.20;;;17.30;99.90;;;;;;5043736;28;20063;-46
2022/09/13 06:07:55;;;;;;;6.45;3.28;;;17.30;99.90;;;;;;5044106;28;20056;-47
2022/09/13 06:10:20;;;;;;;8.27;3.47;;;17.20;99.90;;;;;;5044191;28;20103;-48
2022/09/13 06:12:49;;;;;;;7.45;3.50;;;17.20;99.90;;;;;;5044033;28;20118;-48
2022/09/13 06:15:15;;;;;;;6.88;3.33;;;17.20;99.90;;;;;;5043415;28;20369;-47
2022/09/13 06:17:42;;;;;;;7.25;3.08;;;17.30;99.90;;;;;;5044645;28;20107;-48
2022/09/13 06:20:09;;;;;;;5.85;3.00;;;17.30;99.90;;;;;;5041864;28;20049;-48
2022/09/13 06:22:35;;;;;;;9.25;3.03;;;17.20;99.90;;;;;;5042075;28;20146;-47
2022/09/13 06:25:00;;;;;;;8.15;3.25;;;17.30;99.90;;;;;;5043876;28;20135;-46
2022/09/13 06:27:29;;;;;;;9.30;3.17;;;17.20;99.90;;;;;;5043859;28;20135;-46
2022/09/13 06:29:55;;;;;;;6.47;3.25;;;17.30;99.90;;;;;;5043964;28;20057;-46
2022/09/13 06:32:20;;;;;;;6.40;3.17;;;17.30;99.90;;;;;;5043073;28;20122;-47
2022/09/13 06:34:47;;;;;;;4.15;3.08;;;17.40;99.90;;;;;;5041642;28;20492;-48
2022/09/13 06:37:12;;;;;;;8.07;3.58;;;17.40;99.90;;;;;;5043890;28;20480;-48
2022/09/13 06:39:38;;;;;;;8.82;3.38;;;17.50;99.90;;;;;;5045945;28;20049;-46
2022/09/13 06:42:04;;;;;;;4.05;2.78;;;17.60;99.90;;;;;;5043929;28;20074;-51
2022/09/13 06:44:30;;;;;;;6.15;3.10;;;17.60;99.90;;;;;;5043454;28;20047;-49
2022/09/13 06:46:55;;;;;;;8.48;2.90;;;17.60;99.90;;;;;;5043461;28;20049;-46
2022/09/13 06:49:21;;;;;;;5.78;3.40;;;17.80;99.90;;;;;;5042772;28;20036;-47
2022/09/13 06:51:47;;;;;;;8.73;3.22;;;18.00;99.90;;;;;;5022077;28;20165;-47
2022/09/13 06:54:13;;;;;;;8.10;2.70;;;18.60;99.90;;;;;;5041904;28;20170;-47
2022/09/13 06:56:39;;;;;;;5.78;2.33;;;19.10;99.90;;;;;;5042495;28;20041;-47
2022/09/13 06:59:07;;;;;;;8.35;2.55;;;19.30;99.90;;;;;;5041834;28;20629;-47
2022/09/13 07:01:42;;;;;;;6.90;2.47;;;19.30;99.90;;;;;;5041107;28;20059;-47
2022/09/13 07:04:11;;;;;;;6.78;2.40;;;19.50;99.90;;;;;;5025572;28;20049;-46
2022/09/13 07:06:39;;;;;;;5.47;2.33;;;19.60;99.90;;;;;;5034499;28;20076;-46
2022/09/13 07:09:07;;;;;;;6.72;1.88;;;19.90;99.90;;;;;;5045414;28;20459;-51
2022/09/13 07:11:35;;;;;;;6.47;1.98;;;20.40;99.90;;;;;;5044286;28;20458;-46
2022/09/13 07:14:01;;;;;;;5.40;1.90;;;20.70;99.90;;;;;;5040254;28;20041;-47
2022/09/13 07:16:30;;;;;;;9.15;2.47;;;21.00;99.90;;;;;;5042147;28;20055;-47
2022/09/13 07:19:01;;;;;;;7.97;1.70;;;21.20;99.90;;;;;;5041560;28;20571;-47
2022/09/13 07:21:28;;;;;;;7.30;1.90;;;21.30;99.90;;;;;;5040862;28;20080;-49
2022/09/13 07:23:55;;;;;;;6.95;1.83;;;21.40;99.90;;;;;;5040651;28;20057;-47
2022/09/13 07:26:21;;;;;;;8.48;1.90;;;21.50;99.90;;;;;;5040950;28;20396;-47
2022/09/13 07:28:50;;;;;;;6.97;1.80;;;21.80;99.90;;;;;;5041580;28;20055;-47
2022/09/13 07:31:19;;;;;;;10.63;1.40;;;22.00;99.90;;;;;;5048272;28;20045;-48
2022/09/13 07:33:46;;;;;;;4.65;1.63;;;22.00;99.90;;;;;;5047763;28;20079;-48
2022/09/13 07:36:13;;;;;;;8.50;1.85;;;22.00;99.90;;;;;;5049507;28;20380;-50
2022/09/13 07:38:44;;;;;;;7.47;1.50;;;22.10;99.90;;;;;;5031908;28;20052;-47
2022/09/13 07:41:16;;;;;;;4.78;1.20;;;22.10;99.90;;;;;;5041369;28;20424;-47
2022/09/13 07:43:42;;;;;;;3.60;1.50;;;22.00;99.90;;;;;;5041625;28;20513;-51
2022/09/13 07:46:20;;;;;;;6.97;1.67;;;22.00;99.90;;;;;;5041938;28;20402;-48
2022/09/13 07:48:46;;;;;;;6.55;1.55;;;22.00;99.90;;;;;;5042684;28;20041;-48
2022/09/13 07:51:19;;;;;;;5.75;2.42;;;21.90;99.90;;;;;;5042195;28;20532;-50
2022/09/13 07:53:46;;;;;;;4.43;1.30;;;22.10;99.90;;;;;;5042865;28;20047;-49
2022/09/13 07:56:22;;;;;;;5.65;1.25;;;22.10;99.90;;;;;;5043091;28;20056;-52
2022/09/13 07:58:50;;;;;;;3.67;1.75;;;22.00;99.90;;;;;;5043245;28;20103;-51
2022/09/13 08:01:23;;;;;;;3.50;1.10;;;21.70;99.90;;;;;;5044952;28;20052;-50
2022/09/13 08:03:56;;;;;;;3.90;1.20;;;21.40;99.90;;;;;;5041677;28;20049;-53
2022/09/13 08:06:23;;;;;;;4.15;1.00;;;21.30;99.90;;;;;;5041929;28;20052;-48
2022/09/13 08:08:49;;;;;;;6.13;1.88;;;21.40;99.90;;;;;;5042427;28;20048;-48
2022/09/13 08:11:18;;;;;;;4.10;1.10;;;21.40;99.90;;;;;;5042196;28;20045;-48
2022/09/13 08:13:47;;;;;;;3.97;1.10;;;21.60;99.90;;;;;;5041924;28;20572;-49
2022/09/13 08:16:14;;;;;;;6.78;1.58;;;21.70;99.90;;;;;;5041457;28;20124;-48
2022/09/13 08:18:45;;;;;;;5.22;1.15;;;21.70;99.90;;;;;;5023147;28;20455;-49
2022/09/13 08:21:10;;;;;;;5.05;1.00;;;21.80;99.90;;;;;;5039994;28;20053;-50
2022/09/13 08:23:36;;;;;;;4.13;0.98;;;21.80;99.90;;;;;;5040269;28;20344;-49
2022/09/13 08:26:03;;;;;;;6.10;1.08;;;21.80;99.90;;;;;;5023619;28;20574;-48
2022/09/13 08:28:35;;;;;;;6.32;1.20;;;21.90;99.90;;;;;;5042376;28;20045;-50
2022/09/13 08:31:12;;;;;;;5.88;1.30;;;21.90;99.90;;;;;;5043557;28;20056;-51
2022/09/13 08:33:38;;;;;;;7.40;1.48;;;22.00;99.90;;;;;;5036449;28;20040;-50
2022/09/13 08:36:04;;;;;;;6.53;1.35;;;22.20;99.90;;;;;;5040953;28;20049;-50
2022/09/13 08:38:31;;;;;;;6.25;1.30;;;22.30;99.90;;;;;;5041474;28;20049;-49
2022/09/13 08:41:04;;;;;;;4.65;1.33;;;22.40;99.90;;;;;;5040064;28;20124;-49
2022/09/13 08:43:58;;;;;;;4.47;1.10;;;22.60;99.90;;;;;;5045239;28;20403;-50
2022/09/13 08:46:28;;;;;;;;;;;22.70;99.90;;;;;;4966406;28;20097;-49
2022/09/13 08:49:25;;;;;;;3.80;1.40;;;22.20;99.90;;;;;;4966294;28;20004;-49
2022/09/13 08:51:56;;;;;;;5.22;1.20;;;21.80;99.90;;;;;;4958224;28;20067;-50
2022/09/13 08:54:22;;;;;;;5.40;1.20;;;21.50;99.90;;;;;;4965513;28;20050;-52
2022/09/13 08:56:48;;;;;;;5.97;1.10;;;21.50;99.90;;;;;;4965901;28;20546;-50
2022/09/13 08:59:25;;;;;;;8.30;1.52;;;21.50;99.90;;;;;;4966359;28;20596;-49
2022/09/13 09:02:00;;;;;;;5.47;1.42;;;21.80;99.90;;;;;;4964747;28;20050;-51
2022/09/13 09:04:26;;;;;;;6.35;1.10;;;21.90;99.90;;;;;;4965268;28;20058;-52
2022/09/13 09:07:12;;;;;;;5.10;1.20;;;21.90;99.90;;;;;;4965374;28;20410;-51
2022/09/13 09:09:50;;;;;;;8.48;1.10;;;21.70;99.90;;;;;;4965940;28;20062;-52
2022/09/13 09:12:53;;;;;;;4.72;1.00;;;21.80;99.90;;;;;;4950693;28;20059;-50
2022/09/13 09:15:24;;;;;;;;;;;21.80;99.90;;;;;;4967012;28;20174;-49
2022/09/13 09:17:58;;;;;;;5.38;1.48;;;21.90;99.90;;;;;;4966585;28;19925;-53
2022/09/13 09:20:36;;;;;;;4.53;1.48;;;21.90;99.90;;;;;;4949779;28;20053;-52
2022/09/13 09:23:24;;;;;;;6.43;1.88;;;21.70;99.90;;;;;;4993611;28;20071;-50
2022/09/13 09:25:59;;;;;;;3.50;1.05;;;21.60;99.90;;;;;;5041284;28;20041;-51
2022/09/13 09:28:30;;;;;;;7.38;1.80;;;21.50;99.90;;;;;;5050353;28;20044;-53
2022/09/13 09:31:09;;;;;;;7.25;1.20;;;21.60;99.90;;;;;;5050992;28;20041;-52
2022/09/13 09:33:44;;;;;;;6.78;1.20;;;21.70;99.90;;;;;;5048668;28;20119;-54
2022/09/13 09:36:12;;;;;;;6.05;1.30;;;21.80;99.90;;;;;;5047825;28;20553;-51
2022/09/13 09:38:40;;;;;;;4.75;1.70;;;21.90;99.90;;;;;;5047136;28;20515;-49
2022/09/13 09:41:33;;;;;;;6.10;1.00;;;21.90;99.90;;;;;;5045584;28;20044;-54
2022/09/13 09:44:12;;;;;;;4.90;1.25;;;22.10;99.90;;;;;;5046885;28;20063;-52
2022/09/13 09:46:40;;;;;;;9.45;1.20;;;22.10;99.90;;;;;;5037567;28;20049;-52
2022/09/13 09:52:11;;;;;;;;;;;22.10;99.90;;;;;;5047798;28;20080;-53
2022/09/13 09:54:37;;;;;;;7.40;1.50;;;22.10;99.90;;;;;;5045617;28;20423;-52
2022/09/13 09:57:03;;;;;;;6.30;1.10;;;22.20;99.90;;;;;;5042601;28;20136;-50
2022/09/13 09:59:33;;;;;;;6.85;1.35;;;22.40;99.90;;;;;;5043556;28;20536;-51
2022/09/13 10:02:03;;;;;;;4.43;1.30;;;22.60;99.90;;;;;;5022942;28;20057;-52
2022/09/13 10:04:30;;;;;;;4.80;1.10;;;22.50;99.90;;;;;;5043571;28;20045;-51
2022/09/13 10:07:23;;;;;;;4.22;1.20;;;22.50;99.90;;;;;;5026442;28;20092;-51
2022/09/13 10:09:58;;;;;;;6.78;1.35;;;22.20;99.90;;;;;;5025465;28;20583;-52
2022/09/13 10:12:32;;;;;;;7.47;1.30;;;22.10;99.90;;;;;;5036032;28;20057;-52
2022/09/13 10:15:16;;;;;;;6.22;1.27;;;22.10;99.90;;;;;;5045092;28;20087;-52
2022/09/13 10:17:59;;;;;;;5.15;1.35;;;21.90;99.90;;;;;;5044440;28;20166;-49
2022/09/13 10:20:25;;;;;;;8.95;1.50;;;21.90;99.90;;;;;;5043363;28;20135;-53
2022/09/13 10:23:12;;;;;;;8.48;2.60;;;22.00;99.90;;;;;;5043586;28;20138;-54
2022/09/13 10:25:40;;;;;;;7.65;1.63;;;22.20;99.90;;;;;;5044530;28;20053;-50
2022/09/13 10:28:15;;;;;;;9.93;1.73;;;22.40;99.90;;;;;;5044285;28;20060;-52
2022/09/13 10:30:54;;;;;;;9.90;1.73;;;22.50;99.90;;;;;;5044546;28;20060;-52
2022/09/13 10:33:38;;;;;;;5.22;1.27;;;22.20;99.90;;;;;;5025800;28;20060;-52
2022/09/13 10:36:29;;;;;;;5.03;1.60;;;21.80;99.90;;;;;;5044838;28;20072;-52
2022/09/13 10:39:16;;;;;;;5.55;1.38;;;21.80;99.90;;;;;;4962389;28;20121;-53
2022/09/13 10:41:47;;;;;;;8.18;2.00;;;21.80;99.90;;;;;;4962169;28;20054;-52
2022/09/13 10:44:42;;;;;;;3.80;1.00;;;22.00;99.90;;;;;;4962012;28;20517;-51
2022/09/13 10:47:21;;;;;;;5.10;1.40;;;22.40;99.90;;;;;;4962988;28;20461;-51
2022/09/13 10:49:52;;;;;;;7.50;1.25;;;22.30;99.90;;;;;;4962434;28;20102;-53
2022/09/13 10:52:29;;;;;;;4.40;1.15;;;22.10;99.90;;;;;;4963153;28;20518;-53
2022/09/13 10:55:17;;;;;;;4.10;1.10;;;21.90;99.90;;;;;;4962853;28;20054;-50
2022/09/13 10:57:44;;;;;;;5.95;1.00;;;21.90;99.90;;;;;;4963436;28;20062;-54
2022/09/13 11:00:15;;;;;;;3.13;1.00;;;21.90;99.90;;;;;;4962577;28;20055;-51
2022/09/13 11:03:14;;;;;;;3.45;1.58;;;22.00;99.70;;;;;;4961959;28;20066;-50
2022/09/13 11:06:07;;;;;;;7.43;1.60;;;22.10;99.90;;;;;;4961975;28;20051;-54
2022/09/13 11:08:51;;;;;;;5.95;1.38;;;22.20;99.90;;;;;;4963445;28;20625;-50
2022/09/13 11:11:17;;;;;;;6.63;1.40;;;22.00;99.60;;;;;;4958989;28;20051;-51
2022/09/13 11:13:46;;;;;;;4.57;1.50;;;21.70;99.90;;;;;;4961199;28;20506;-54
2022/09/13 11:16:18;;;;;;;10.90;2.75;;;21.50;99.90;;;;;;5009558;28;20096;-51
2022/09/13 11:19:30;;;;;;;4.40;1.58;;;21.40;99.90;;;;;;5044224;28;20052;-53
2022/09/13 11:22:26;;;;;;;3.92;1.13;;;21.60;99.90;;;;;;5042827;28;20508;-51
2022/09/13 11:25:01;;;;;;;10.20;1.30;;;21.70;99.90;;;;;;5043122;28;20059;-55
2022/09/13 11:27:43;;;;;;;5.90;1.20;;;21.80;99.90;;;;;;5044364;28;20095;-51
2022/09/13 11:30:17;;;;;;;6.00;1.35;;;21.60;99.90;;;;;;5043627;28;20088;-52
2022/09/13 11:33:05;;;;;;;6.15;1.45;;;21.50;99.90;;;;;;5043904;28;20412;-51
2022/09/13 11:36:03;;;;;;;8.52;1.63;;;21.50;99.90;;;;;;5044301;28;20110;-52
2022/09/13 11:38:48;;;;;;;6.78;1.20;;;21.40;99.90;;;;;;5044531;28;20045;-51
2022/09/13 11:41:27;;;;;;;6.45;1.33;;;21.60;99.90;;;;;;5043436;28;20133;-53
2022/09/13 11:44:05;;;;;;;5.00;1.80;;;21.70;99.90;;;;;;5038089;28;20056;-50
2022/09/13 11:46:46;;;;;;;4.22;1.13;;;21.70;99.90;;;;;;5024370;28;20132;-54
2022/09/13 11:49:27;;;;;;;3.80;1.08;;;21.70;99.90;;;;;;5025948;28;20053;-50
2022/09/13 11:52:13;;;;;;;7.22;2.42;;;21.50;99.90;;;;;;5043240;28;20063;-50
2022/09/13 11:54:59;;;;;;;5.55;1.30;;;21.70;99.90;;;;;;5043132;28;20057;-49
2022/09/13 11:57:37;;;;;;;3.78;1.15;;;21.80;99.90;;;;;;5043758;28;20095;-54
2022/09/13 12:00:24;;;;;;;4.65;1.20;;;21.90;99.60;;;;;;5044072;28;20053;-55
2022/09/13 12:03:00;;;;;;;5.88;1.30;;;21.90;98.90;;;;;;5042657;28;20558;-55
2022/09/13 12:05:31;;;;;;;4.40;1.20;;;21.90;99.70;;;;;;5042271;28;20548;-50
2022/09/13 12:08:04;;;;;;;4.47;1.08;;;22.00;99.70;;;;;;5043136;28;20047;-52
2022/09/13 12:10:44;;;;;;;5.85;1.27;;;22.00;99.20;;;;;;5043778;28;20049;-51
2022/09/13 12:13:17;;;;;;;4.82;1.20;;;21.90;99.00;;;;;;5043134;28;20087;-56
2022/09/13 12:15:47;;;;;;;5.97;1.20;;;21.90;98.40;;;;;;5043362;28;20155;-53
2022/09/13 12:18:22;;;;;;;7.45;2.05;;;21.80;99.00;;;;;;5041862;28;20049;-52
2022/09/13 12:21:05;;;;;;;4.45;1.17;;;21.90;99.10;;;;;;5043032;28;20049;-50
2022/09/13 12:23:37;;;;;;;3.58;1.10;;;21.90;99.30;;;;;;5042372;28;20092;-50
2022/09/13 12:26:34;;;;;;;4.40;1.15;;;21.80;99.00;;;;;;5041612;28;20095;-54
2022/09/13 12:29:31;;;;;;;5.13;1.55;;;21.80;99.40;;;;;;5018182;28;20080;-52
2022/09/13 12:32:05;;;;;;;4.82;1.75;;;21.80;99.30;;;;;;5025517;28;20130;-49
2022/09/13 12:35:02;;;;;;;4.72;1.40;;;21.90;99.30;;;;;;5042976;28;20733;-56
2022/09/13 12:38:05;;;;;;;6.57;1.55;;;22.10;98.60;;;;;;5021698;28;20067;-52
2022/09/13 12:40:50;;;;;;;6.85;1.52;;;22.20;99.80;;;;;;5020463;28;20065;-53
2022/09/13 12:43:55;;;;;;;8.25;2.03;;;22.30;99.70;;;;;;5042765;28;20052;-52
2022/09/13 12:46:40;;;;;;;9.15;1.88;;;22.40;99.90;;;;;;5039672;28;20057;-52
2022/09/13 12:49:29;;;;;;;6.10;1.92;;;22.40;99.90;;;;;;5042794;28;20059;-52
2022/09/13 12:52:14;;;;;;;7.30;1.80;;;22.30;99.90;;;;;;5032651;28;20160;-50
2022/09/13 12:55:09;;;;;;;10.95;1.60;;;22.20;99.60;;;;;;5042675;28;20131;-50
2022/09/13 12:57:53;;;;;;;6.72;1.85;;;22.10;99.90;;;;;;5040645;28;20459;-52
2022/09/13 13:00:27;;;;;;;6.00;1.67;;;22.00;99.90;;;;;;5041824;28;20048;-53
2022/09/13 13:03:04;;;;;;;8.93;1.70;;;22.00;99.90;;;;;;5025223;28;20610;-55
2022/09/13 13:05:37;;;;;;;8.52;1.73;;;21.90;99.90;;;;;;5041700;28;20053;-54
2022/09/13 13:08:23;;;;;;;6.90;1.45;;;21.90;99.90;;;;;;5041451;28;20566;-53
2022/09/13 13:11:23;;;;;;;5.95;1.95;;;22.00;99.90;;;;;;5041969;28;20049;-50
2022/09/13 13:13:56;;;;;;;8.27;1.50;;;22.10;99.50;;;;;;4961032;28;20644;-53
2022/09/13 13:16:22;;;;;;;12.05;2.38;;;22.10;99.70;;;;;;4960502;28;20082;-53
2022/09/13 13:18:51;;;;;;;8.02;2.10;;;21.90;99.40;;;;;;4960363;28;20166;-51
2022/09/13 13:21:39;;;;;;;5.63;1.70;;;22.10;99.90;;;;;;4960319;28;20094;-50